KEUG/EUG METAR and TAF weather

Enter ICAO airport designator
Station Type Date Time Source
KEUG METAR 2020/12/06 00:54 UTC NOAA

KEUG 060054Z 26004KT 10SM SCT085 BKN100 OVC120 06/02 A3010 RMK AO2 SLP195 T00560022


Station Type Date Time Source
KEUG Decoded METAR 2020/12/06 00:54 UTC NOAA

MAHLON SWEET FIELD, OR, United States (KEUG) 44-08N 123-13W 114M
Dec 05, 2020 - 07:54 PM EST / 2020.12.06 0054 UTC
Wind: from the W (260 degrees) at 5 MPH (4 KT):0
Visibility: 10 mile(s):0
Sky conditions: overcast
Temperature: 42.1 F (5.6 C)
Dew Point: 36.0 F (2.2 C)
Relative Humidity: 78%
Pressure (altimeter): 30.1 in. Hg (1019 hPa)
ob: KEUG 060054Z 26004KT 10SM SCT085 BKN100 OVC120 06/02 A3010 RMK AO2 SLP195 T00560022
cycle: 1

Station Type Date Time Source
KEUG TAF 2020/12/05 18:42 UTC NOAA

TAF KEUG 051739Z 0518/0618 VRB04KT 5SM BR SCT005
FM052000 VRB04KT P6SM BKN120
FM060000 18006KT P6SM -RA BKN050
FM060400 19008KT P6SM -RA BKN015 OVC035
FM061200 19005KT P6SM SCT015 BKN035

Example: see airport list